sensor_id;sensor_type;location;lat;lon;timestamp;pressure;altitude;pressure_sealevel;temperature;humidity
72308;BME280;60257;42.638;23.376;2022-12-18T00:01:42;95306.13;;;6.44;80.35
72308;BME280;60257;42.638;23.376;2022-12-18T00:04:17;95321.06;;;6.47;80.74
72308;BME280;60257;42.638;23.376;2022-12-18T00:06:43;95326.50;;;6.47;80.40
72308;BME280;60257;42.638;23.376;2022-12-18T00:09:10;95330.25;;;6.37;80.32
72308;BME280;60257;42.638;23.376;2022-12-18T00:11:35;95329.25;;;6.33;79.76
72308;BME280;60257;42.638;23.376;2022-12-18T00:14:01;95337.31;;;6.25;81.13
72308;BME280;60257;42.638;23.376;2022-12-18T00:16:27;95336.13;;;6.17;80.75
72308;BME280;60257;42.638;23.376;2022-12-18T00:18:55;95346.09;;;6.08;81.05
72308;BME280;60257;42.638;23.376;2022-12-18T00:21:21;95341.97;;;6.10;80.79
72308;BME280;60257;42.638;23.376;2022-12-18T00:23:48;95350.31;;;6.14;80.89
72308;BME280;60257;42.638;23.376;2022-12-18T00:26:17;95347.00;;;6.03;80.62
72308;BME280;60257;42.638;23.376;2022-12-18T00:28:44;95353.03;;;6.00;80.80
72308;BME280;60257;42.638;23.376;2022-12-18T00:31:12;95357.47;;;5.96;81.01
72308;BME280;60257;42.638;23.376;2022-12-18T00:33:38;95351.38;;;5.86;80.91
72308;BME280;60257;42.638;23.376;2022-12-18T00:36:06;95345.31;;;5.75;81.15
72308;BME280;60257;42.638;23.376;2022-12-18T00:38:32;95355.22;;;5.85;81.11
72308;BME280;60257;42.638;23.376;2022-12-18T00:40:57;95341.66;;;5.66;81.14
72308;BME280;60257;42.638;23.376;2022-12-18T00:43:23;95346.00;;;5.67;81.26
72308;BME280;60257;42.638;23.376;2022-12-18T00:45:48;95354.84;;;5.59;81.58
72308;BME280;60257;42.638;23.376;2022-12-18T00:48:14;95359.13;;;5.65;81.32
72308;BME280;60257;42.638;23.376;2022-12-18T00:50:39;95363.94;;;5.68;81.58
72308;BME280;60257;42.638;23.376;2022-12-18T00:53:05;95371.97;;;5.59;81.51
72308;BME280;60257;42.638;23.376;2022-12-18T00:55:31;95374.69;;;5.59;81.14
72308;BME280;60257;42.638;23.376;2022-12-18T00:57:57;95377.91;;;5.48;81.78
72308;BME280;60257;42.638;23.376;2022-12-18T01:00:22;95388.28;;;5.46;81.86
72308;BME280;60257;42.638;23.376;2022-12-18T01:02:48;95385.31;;;5.42;82.27
72308;BME280;60257;42.638;23.376;2022-12-18T01:05:14;95383.72;;;5.41;82.39
72308;BME280;60257;42.638;23.376;2022-12-18T01:07:40;95378.28;;;5.41;81.94
72308;BME280;60257;42.638;23.376;2022-12-18T01:10:07;95389.66;;;5.43;82.02
72308;BME280;60257;42.638;23.376;2022-12-18T01:12:33;95388.03;;;5.42;82.02
72308;BME280;60257;42.638;23.376;2022-12-18T01:14:59;95391.56;;;5.42;82.30
72308;BME280;60257;42.638;23.376;2022-12-18T01:17:24;95402.91;;;5.31;82.36
72308;BME280;60257;42.638;23.376;2022-12-18T01:19:50;95388.91;;;5.24;82.65
72308;BME280;60257;42.638;23.376;2022-12-18T01:22:15;95389.41;;;5.26;82.74
72308;BME280;60257;42.638;23.376;2022-12-18T01:24:41;95403.44;;;5.33;82.33
72308;BME280;60257;42.638;23.376;2022-12-18T01:27:06;95387.19;;;5.28;81.87
72308;BME280;60257;42.638;23.376;2022-12-18T01:29:32;95391.91;;;5.03;82.37
72308;BME280;60257;42.638;23.376;2022-12-18T01:31:57;95389.56;;;4.97;82.28
72308;BME280;60257;42.638;23.376;2022-12-18T01:34:23;95404.16;;;5.20;81.42
72308;BME280;60257;42.638;23.376;2022-12-18T01:36:50;95398.38;;;5.08;81.18
72308;BME280;60257;42.638;23.376;2022-12-18T01:39:17;95405.50;;;4.85;81.67
72308;BME280;60257;42.638;23.376;2022-12-18T01:41:44;95415.72;;;4.93;81.50
72308;BME280;60257;42.638;23.376;2022-12-18T01:50:10;95418.16;;;4.94;81.12
72308;BME280;60257;42.638;23.376;2022-12-18T01:52:42;95407.97;;;4.81;81.35
72308;BME280;60257;42.638;23.376;2022-12-18T01:55:10;95410.78;;;4.76;80.95
72308;BME280;60257;42.638;23.376;2022-12-18T01:57:37;95421.81;;;4.85;81.21
72308;BME280;60257;42.638;23.376;2022-12-18T02:00:08;95412.41;;;4.77;80.91
72308;BME280;60257;42.638;23.376;2022-12-18T02:02:34;95422.00;;;4.88;80.89
72308;BME280;60257;42.638;23.376;2022-12-18T02:05:00;95421.19;;;4.88;80.12
72308;BME280;60257;42.638;23.376;2022-12-18T02:16:31;95443.94;;;4.73;80.76
72308;BME280;60257;42.638;23.376;2022-12-18T02:19:02;95441.19;;;4.78;80.87
72308;BME280;60257;42.638;23.376;2022-12-18T02:22:34;95447.81;;;4.91;80.47
72308;BME280;60257;42.638;23.376;2022-12-18T02:24:45;95454.78;;;4.78;80.82
72308;BME280;60257;42.638;23.376;2022-12-18T02:27:18;95448.91;;;4.90;80.41
72308;BME280;60257;42.638;23.376;2022-12-18T02:29:51;95451.19;;;4.83;80.63
72308;BME280;60257;42.638;23.376;2022-12-18T02:32:21;95451.47;;;4.81;81.26
72308;BME280;60257;42.638;23.376;2022-12-18T02:34:50;95447.66;;;4.82;80.93
72308;BME280;60257;42.638;23.376;2022-12-18T02:37:19;95456.59;;;4.83;80.57
72308;BME280;60257;42.638;23.376;2022-12-18T02:39:47;95455.97;;;4.91;80.68
72308;BME280;60257;42.638;23.376;2022-12-18T02:42:14;95455.59;;;4.79;80.46
72308;BME280;60257;42.638;23.376;2022-12-18T02:44:44;95445.28;;;4.76;80.98
72308;BME280;60257;42.638;23.376;2022-12-18T02:47:15;95453.81;;;4.88;80.75
72308;BME280;60257;42.638;23.376;2022-12-18T03:03:38;95476.75;;;4.58;80.40
72308;BME280;60257;42.638;23.376;2022-12-18T03:06:09;95473.16;;;4.62;80.56
72308;BME280;60257;42.638;23.376;2022-12-18T03:08:39;95477.38;;;4.50;80.09
72308;BME280;60257;42.638;23.376;2022-12-18T03:11:12;95483.56;;;4.55;80.68
72308;BME280;60257;42.638;23.376;2022-12-18T03:13:56;95481.16;;;4.54;79.91
72308;BME280;60257;42.638;23.376;2022-12-18T03:16:27;95488.69;;;4.57;80.24
72308;BME280;60257;42.638;23.376;2022-12-18T03:19:11;95482.53;;;4.51;80.17
72308;BME280;60257;42.638;23.376;2022-12-18T03:21:44;95487.03;;;4.61;79.78
72308;BME280;60257;42.638;23.376;2022-12-18T03:24:11;95487.09;;;4.56;79.61
72308;BME280;60257;42.638;23.376;2022-12-18T03:26:40;95493.84;;;4.35;80.50
72308;BME280;60257;42.638;23.376;2022-12-18T03:29:11;95482.00;;;4.25;81.00
72308;BME280;60257;42.638;23.376;2022-12-18T03:31:41;95490.09;;;4.31;81.03
72308;BME280;60257;42.638;23.376;2022-12-18T03:34:17;95501.34;;;4.43;80.82
72308;BME280;60257;42.638;23.376;2022-12-18T03:36:46;95512.00;;;4.39;80.43
72308;BME280;60257;42.638;23.376;2022-12-18T03:39:13;95517.09;;;4.46;80.73
72308;BME280;60257;42.638;23.376;2022-12-18T03:42:21;95508.06;;;4.50;80.02
72308;BME280;60257;42.638;23.376;2022-12-18T03:47:32;95528.66;;;4.56;79.97
72308;BME280;60257;42.638;23.376;2022-12-18T03:55:15;95539.69;;;4.41;78.90
72308;BME280;60257;42.638;23.376;2022-12-18T03:57:43;95552.63;;;4.49;78.82
72308;BME280;60257;42.638;23.376;2022-12-18T04:00:12;95545.06;;;4.46;78.84
72308;BME280;60257;42.638;23.376;2022-12-18T04:02:43;95543.50;;;4.40;79.38
72308;BME280;60257;42.638;23.376;2022-12-18T04:05:10;95521.94;;;4.20;78.57
72308;BME280;60257;42.638;23.376;2022-12-18T04:07:38;95547.63;;;4.33;79.01
72308;BME280;60257;42.638;23.376;2022-12-18T04:10:06;95534.69;;;4.24;78.99
72308;BME280;60257;42.638;23.376;2022-12-18T04:12:32;95518.19;;;4.16;78.44
72308;BME280;60257;42.638;23.376;2022-12-18T04:14:58;95536.88;;;4.22;79.02
72308;BME280;60257;42.638;23.376;2022-12-18T04:17:23;95525.06;;;4.03;79.45
72308;BME280;60257;42.638;23.376;2022-12-18T04:19:49;95554.66;;;4.05;79.55
72308;BME280;60257;42.638;23.376;2022-12-18T04:22:15;95558.19;;;4.05;79.43
72308;BME280;60257;42.638;23.376;2022-12-18T04:24:40;95566.38;;;4.00;78.94
72308;BME280;60257;42.638;23.376;2022-12-18T04:27:06;95555.53;;;3.95;79.07
72308;BME280;60257;42.638;23.376;2022-12-18T04:29:31;95564.25;;;3.92;78.59
72308;BME280;60257;42.638;23.376;2022-12-18T04:31:57;95558.88;;;3.87;78.87
72308;BME280;60257;42.638;23.376;2022-12-18T04:34:22;95575.69;;;3.89;78.93
72308;BME280;60257;42.638;23.376;2022-12-18T04:36:48;95569.03;;;3.71;79.12
72308;BME280;60257;42.638;23.376;2022-12-18T04:39:14;95576.22;;;3.91;79.20
72308;BME280;60257;42.638;23.376;2022-12-18T04:41:39;95578.84;;;4.01;78.37
72308;BME280;60257;42.638;23.376;2022-12-18T04:44:05;95574.03;;;3.93;78.43
72308;BME280;60257;42.638;23.376;2022-12-18T04:46:30;95596.06;;;3.86;78.08
72308;BME280;60257;42.638;23.376;2022-12-18T04:48:56;95584.50;;;3.71;77.74
72308;BME280;60257;42.638;23.376;2022-12-18T04:51:21;95595.00;;;3.82;77.46
72308;BME280;60257;42.638;23.376;2022-12-18T04:53:47;95587.66;;;3.83;77.18
72308;BME280;60257;42.638;23.376;2022-12-18T04:56:14;95602.53;;;3.91;77.46
72308;BME280;60257;42.638;23.376;2022-12-18T04:58:41;95604.16;;;3.92;76.90
72308;BME280;60257;42.638;23.376;2022-12-18T05:01:07;95589.81;;;3.86;76.61
72308;BME280;60257;42.638;23.376;2022-12-18T05:03:34;95607.91;;;3.96;76.19
72308;BME280;60257;42.638;23.376;2022-12-18T05:06:00;95603.41;;;3.86;76.06
72308;BME280;60257;42.638;23.376;2022-12-18T05:08:25;95602.00;;;3.88;75.70
72308;BME280;60257;42.638;23.376;2022-12-18T05:11:08;95607.50;;;3.78;76.08
72308;BME280;60257;42.638;23.376;2022-12-18T05:13:35;95613.22;;;3.77;75.93
72308;BME280;60257;42.638;23.376;2022-12-18T05:16:02;95627.00;;;3.85;75.19
72308;BME280;60257;42.638;23.376;2022-12-18T05:18:28;95628.41;;;3.78;75.68
72308;BME280;60257;42.638;23.376;2022-12-18T05:20:54;95622.75;;;3.69;75.87
72308;BME280;60257;42.638;23.376;2022-12-18T05:23:20;95634.09;;;3.76;75.61
72308;BME280;60257;42.638;23.376;2022-12-18T05:25:51;95634.72;;;3.63;75.72
72308;BME280;60257;42.638;23.376;2022-12-18T05:28:17;95636.63;;;3.63;75.74
72308;BME280;60257;42.638;23.376;2022-12-18T05:30:42;95653.38;;;3.75;75.83
72308;BME280;60257;42.638;23.376;2022-12-18T05:33:08;95636.84;;;3.71;76.17
72308;BME280;60257;42.638;23.376;2022-12-18T05:35:33;95653.31;;;3.85;75.64
72308;BME280;60257;42.638;23.376;2022-12-18T05:37:58;95644.13;;;3.76;75.26
72308;BME280;60257;42.638;23.376;2022-12-18T05:40:24;95652.00;;;3.77;74.94
72308;BME280;60257;42.638;23.376;2022-12-18T05:42:49;95654.69;;;3.82;75.11
72308;BME280;60257;42.638;23.376;2022-12-18T05:45:15;95653.03;;;3.86;74.54
72308;BME280;60257;42.638;23.376;2022-12-18T05:47:40;95652.31;;;3.66;75.61
72308;BME280;60257;42.638;23.376;2022-12-18T05:50:07;95660.41;;;3.76;75.60
72308;BME280;60257;42.638;23.376;2022-12-18T05:52:32;95629.91;;;3.50;75.26
72308;BME280;60257;42.638;23.376;2022-12-18T05:54:58;95647.84;;;3.90;74.52
72308;BME280;60257;42.638;23.376;2022-12-18T05:57:24;95657.19;;;3.69;75.06
72308;BME280;60257;42.638;23.376;2022-12-18T05:59:49;95664.25;;;3.70;74.61
72308;BME280;60257;42.638;23.376;2022-12-18T06:02:15;95645.13;;;3.46;75.00
72308;BME280;60257;42.638;23.376;2022-12-18T06:04:40;95675.06;;;3.75;74.09
72308;BME280;60257;42.638;23.376;2022-12-18T06:07:06;95672.63;;;3.78;74.57
72308;BME280;60257;42.638;23.376;2022-12-18T06:09:31;95664.53;;;3.68;74.41
72308;BME280;60257;42.638;23.376;2022-12-18T06:11:57;95675.91;;;3.70;75.06
72308;BME280;60257;42.638;23.376;2022-12-18T06:14:22;95670.50;;;3.70;74.89
72308;BME280;60257;42.638;23.376;2022-12-18T06:16:50;95677.56;;;3.66;74.15
72308;BME280;60257;42.638;23.376;2022-12-18T06:19:16;95683.28;;;3.60;74.64
72308;BME280;60257;42.638;23.376;2022-12-18T06:21:42;95688.47;;;3.56;74.79
72308;BME280;60257;42.638;23.376;2022-12-18T06:24:08;95678.16;;;3.53;74.24
72308;BME280;60257;42.638;23.376;2022-12-18T06:26:33;95694.69;;;3.62;74.43
72308;BME280;60257;42.638;23.376;2022-12-18T06:28:59;95688.75;;;3.55;74.52
72308;BME280;60257;42.638;23.376;2022-12-18T06:31:25;95701.38;;;3.74;74.21
72308;BME280;60257;42.638;23.376;2022-12-18T06:33:51;95708.47;;;3.70;74.15
72308;BME280;60257;42.638;23.376;2022-12-18T06:36:16;95712.25;;;3.74;74.11
72308;BME280;60257;42.638;23.376;2022-12-18T06:38:43;95721.69;;;3.82;74.76
72308;BME280;60257;42.638;23.376;2022-12-18T06:41:17;95722.31;;;3.69;74.75
72308;BME280;60257;42.638;23.376;2022-12-18T06:43:43;95730.69;;;3.72;74.70
72308;BME280;60257;42.638;23.376;2022-12-18T06:46:10;95730.09;;;3.80;73.75
72308;BME280;60257;42.638;23.376;2022-12-18T06:48:35;95737.56;;;3.55;74.08
72308;BME280;60257;42.638;23.376;2022-12-18T06:51:02;95720.16;;;3.61;73.98
72308;BME280;60257;42.638;23.376;2022-12-18T06:53:28;95733.41;;;3.72;74.02
72308;BME280;60257;42.638;23.376;2022-12-18T06:56:06;95725.06;;;3.59;73.73
72308;BME280;60257;42.638;23.376;2022-12-18T06:58:32;95736.69;;;3.69;73.35
72308;BME280;60257;42.638;23.376;2022-12-18T07:01:04;95738.84;;;3.67;73.33
72308;BME280;60257;42.638;23.376;2022-12-18T07:03:31;95731.56;;;3.63;73.39
72308;BME280;60257;42.638;23.376;2022-12-18T07:05:56;95748.91;;;3.62;73.08
72308;BME280;60257;42.638;23.376;2022-12-18T07:08:22;95744.56;;;3.71;73.15
72308;BME280;60257;42.638;23.376;2022-12-18T07:10:47;95739.34;;;3.84;72.80
72308;BME280;60257;42.638;23.376;2022-12-18T07:13:15;95743.34;;;3.97;71.96
72308;BME280;60257;42.638;23.376;2022-12-18T07:15:40;95745.84;;;3.83;71.95
72308;BME280;60257;42.638;23.376;2022-12-18T07:18:06;95741.25;;;3.79;71.70
72308;BME280;60257;42.638;23.376;2022-12-18T07:20:31;95747.47;;;3.79;71.80
72308;BME280;60257;42.638;23.376;2022-12-18T07:22:57;95769.22;;;3.74;71.90
72308;BME280;60257;42.638;23.376;2022-12-18T07:25:22;95726.88;;;3.73;71.82
72308;BME280;60257;42.638;23.376;2022-12-18T07:27:48;95743.22;;;3.58;72.10
72308;BME280;60257;42.638;23.376;2022-12-18T07:30:13;95758.69;;;3.63;72.75
72308;BME280;60257;42.638;23.376;2022-12-18T07:32:39;95748.88;;;3.77;72.57
72308;BME280;60257;42.638;23.376;2022-12-18T07:35:04;95757.00;;;3.72;72.17
72308;BME280;60257;42.638;23.376;2022-12-18T07:37:30;95752.69;;;3.71;71.58
72308;BME280;60257;42.638;23.376;2022-12-18T07:39:55;95772.28;;;3.53;71.97
72308;BME280;60257;42.638;23.376;2022-12-18T07:42:21;95775.78;;;3.63;71.81
72308;BME280;60257;42.638;23.376;2022-12-18T07:44:55;95771.69;;;3.61;71.34
72308;BME280;60257;42.638;23.376;2022-12-18T07:47:21;95777.69;;;3.63;72.21
72308;BME280;60257;42.638;23.376;2022-12-18T07:49:46;95782.59;;;3.56;71.94
72308;BME280;60257;42.638;23.376;2022-12-18T07:52:12;95770.91;;;3.50;72.46
72308;BME280;60257;42.638;23.376;2022-12-18T07:54:38;95786.09;;;3.61;71.87
72308;BME280;60257;42.638;23.376;2022-12-18T07:57:03;95784.69;;;3.74;71.76
72308;BME280;60257;42.638;23.376;2022-12-18T07:59:29;95778.44;;;3.78;71.02
72308;BME280;60257;42.638;23.376;2022-12-18T08:01:54;95803.41;;;3.75;71.54
72308;BME280;60257;42.638;23.376;2022-12-18T08:04:20;95793.09;;;3.72;71.59
72308;BME280;60257;42.638;23.376;2022-12-18T08:06:46;95792.84;;;3.59;70.97
72308;BME280;60257;42.638;23.376;2022-12-18T08:09:11;95806.16;;;3.60;71.54
72308;BME280;60257;42.638;23.376;2022-12-18T08:11:37;95817.78;;;3.71;71.48
72308;BME280;60257;42.638;23.376;2022-12-18T08:14:02;95821.31;;;3.71;70.83
72308;BME280;60257;42.638;23.376;2022-12-18T08:16:28;95826.78;;;3.56;70.82
72308;BME280;60257;42.638;23.376;2022-12-18T08:18:54;95839.00;;;3.38;71.99
72308;BME280;60257;42.638;23.376;2022-12-18T08:21:23;95833.03;;;3.46;72.09
72308;BME280;60257;42.638;23.376;2022-12-18T08:23:50;95837.91;;;3.49;71.73
72308;BME280;60257;42.638;23.376;2022-12-18T08:26:16;95823.53;;;3.54;71.45
72308;BME280;60257;42.638;23.376;2022-12-18T08:28:41;95833.31;;;3.45;71.99
72308;BME280;60257;42.638;23.376;2022-12-18T08:31:07;95841.94;;;3.57;71.58
72308;BME280;60257;42.638;23.376;2022-12-18T08:33:34;95842.81;;;3.37;71.47
72308;BME280;60257;42.638;23.376;2022-12-18T08:36:01;95850.66;;;3.34;71.56
72308;BME280;60257;42.638;23.376;2022-12-18T08:38:27;95840.63;;;3.39;nan
72308;BME280;60257;42.638;23.376;2022-12-18T08:41:19;95847.41;;;3.47;71.52
72308;BME280;60257;42.638;23.376;2022-12-18T08:43:44;95843.88;;;3.52;71.21
72308;BME280;60257;42.638;23.376;2022-12-18T08:46:34;95856.88;;;3.70;70.20
72308;BME280;60257;42.638;23.376;2022-12-18T08:49:00;95850.03;;;3.82;70.60
72308;BME280;60257;42.638;23.376;2022-12-18T08:51:26;95852.22;;;3.85;70.34
72308;BME280;60257;42.638;23.376;2022-12-18T08:53:51;95848.69;;;3.85;70.17
72308;BME280;60257;42.638;23.376;2022-12-18T08:56:17;95847.88;;;3.79;70.34
72308;BME280;60257;42.638;23.376;2022-12-18T08:58:42;95838.69;;;3.70;70.43
72308;BME280;60257;42.638;23.376;2022-12-18T09:01:10;95851.69;;;3.78;70.48
72308;BME280;60257;42.638;23.376;2022-12-18T09:03:36;95855.75;;;3.76;70.63
72308;BME280;60257;42.638;23.376;2022-12-18T09:06:02;95828.91;;;3.74;70.20
72308;BME280;60257;42.638;23.376;2022-12-18T09:08:28;95854.09;;;3.90;69.55
72308;BME280;60257;42.638;23.376;2022-12-18T09:10:54;95840.28;;;3.81;69.62
72308;BME280;60257;42.638;23.376;2022-12-18T09:13:20;95846.72;;;3.96;69.68
72308;BME280;60257;42.638;23.376;2022-12-18T09:15:51;95838.06;;;3.99;69.30
72308;BME280;60257;42.638;23.376;2022-12-18T09:18:19;95845.59;;;4.12;68.85
72308;BME280;60257;42.638;23.376;2022-12-18T09:20:45;95840.50;;;3.95;68.98
72308;BME280;60257;42.638;23.376;2022-12-18T09:23:12;95813.94;;;3.82;68.74
72308;BME280;60257;42.638;23.376;2022-12-18T09:25:37;95853.53;;;3.93;69.40
72308;BME280;60257;42.638;23.376;2022-12-18T09:28:09;95845.41;;;3.93;69.56
72308;BME280;60257;42.638;23.376;2022-12-18T09:30:40;95846.22;;;3.94;69.57
72308;BME280;60257;42.638;23.376;2022-12-18T09:33:06;95844.56;;;3.98;69.56
72308;BME280;60257;42.638;23.376;2022-12-18T09:35:32;95843.19;;;4.05;69.27
72308;BME280;60257;42.638;23.376;2022-12-18T09:37:57;95835.00;;;4.15;68.52
72308;BME280;60257;42.638;23.376;2022-12-18T09:40:26;95855.03;;;4.30;67.68
72308;BME280;60257;42.638;23.376;2022-12-18T09:42:57;95849.78;;;4.48;67.91
72308;BME280;60257;42.638;23.376;2022-12-18T09:45:24;95857.81;;;4.14;66.71
72308;BME280;60257;42.638;23.376;2022-12-18T09:47:52;95842.63;;;4.08;67.51
72308;BME280;60257;42.638;23.376;2022-12-18T09:50:35;95845.53;;;4.27;66.31
72308;BME280;60257;42.638;23.376;2022-12-18T09:53:06;95839.00;;;4.28;65.89
72308;BME280;60257;42.638;23.376;2022-12-18T09:55:38;95846.81;;;4.45;65.84
72308;BME280;60257;42.638;23.376;2022-12-18T10:00:35;95839.78;;;4.83;64.48
72308;BME280;60257;42.638;23.376;2022-12-18T10:03:09;95831.09;;;4.86;64.53
72308;BME280;60257;42.638;23.376;2022-12-18T10:05:45;95845.16;;;4.93;65.19
72308;BME280;60257;42.638;23.376;2022-12-18T10:08:24;95845.50;;;4.86;64.52
72308;BME280;60257;42.638;23.376;2022-12-18T10:10:57;95837.06;;;4.83;63.13
72308;BME280;60257;42.638;23.376;2022-12-18T10:13:34;95847.28;;;4.57;63.84
72308;BME280;60257;42.638;23.376;2022-12-18T10:21:34;95847.44;;;4.32;64.77
72308;BME280;60257;42.638;23.376;2022-12-18T10:24:22;95854.16;;;4.44;64.80
72308;BME280;60257;42.638;23.376;2022-12-18T10:26:52;95847.44;;;4.32;65.70
72308;BME280;60257;42.638;23.376;2022-12-18T10:29:18;95855.00;;;4.40;64.13
72308;BME280;60257;42.638;23.376;2022-12-18T10:31:44;95850.56;;;3.95;65.61
72308;BME280;60257;42.638;23.376;2022-12-18T10:34:12;95854.84;;;4.06;64.67
72308;BME280;60257;42.638;23.376;2022-12-18T10:36:40;95844.78;;;4.11;64.68
72308;BME280;60257;42.638;23.376;2022-12-18T10:39:21;95852.09;;;4.21;64.41
72308;BME280;60257;42.638;23.376;2022-12-18T10:41:51;95838.72;;;4.35;64.05
72308;BME280;60257;42.638;23.376;2022-12-18T10:44:23;95844.50;;;4.18;64.37
72308;BME280;60257;42.638;23.376;2022-12-18T10:46:54;95838.78;;;4.24;64.17
72308;BME280;60257;42.638;23.376;2022-12-18T10:49:29;95827.81;;;4.45;64.35
72308;BME280;60257;42.638;23.376;2022-12-18T10:52:15;95833.19;;;4.55;64.12
72308;BME280;60257;42.638;23.376;2022-12-18T10:55:03;95832.69;;;4.48;64.08
72308;BME280;60257;42.638;23.376;2022-12-18T10:57:35;95848.47;;;4.41;64.09
72308;BME280;60257;42.638;23.376;2022-12-18T11:02:46;95814.25;;;4.40;64.60
72308;BME280;60257;42.638;23.376;2022-12-18T11:05:26;95833.72;;;4.52;64.52
72308;BME280;60257;42.638;23.376;2022-12-18T11:07:53;95833.66;;;4.67;63.43
72308;BME280;60257;42.638;23.376;2022-12-18T11:10:29;95828.25;;;4.62;63.90
72308;BME280;60257;42.638;23.376;2022-12-18T11:12:56;95832.69;;;4.48;64.80
72308;BME280;60257;42.638;23.376;2022-12-18T11:15:26;95844.31;;;4.53;63.43
72308;BME280;60257;42.638;23.376;2022-12-18T11:17:53;95848.59;;;4.15;64.64
72308;BME280;60257;42.638;23.376;2022-12-18T11:20:30;95841.81;;;4.08;64.49
72308;BME280;60257;42.638;23.376;2022-12-18T11:23:02;95854.06;;;4.00;62.40
72308;BME280;60257;42.638;23.376;2022-12-18T11:25:30;95847.59;;;3.86;62.49
72308;BME280;60257;42.638;23.376;2022-12-18T11:28:01;95848.38;;;4.02;62.30
72308;BME280;60257;42.638;23.376;2022-12-18T11:30:35;95842.69;;;3.93;62.74
72308;BME280;60257;42.638;23.376;2022-12-18T11:33:15;95844.03;;;3.96;62.81
72308;BME280;60257;42.638;23.376;2022-12-18T11:38:31;95828.84;;;3.90;62.56
72308;BME280;60257;42.638;23.376;2022-12-18T11:43:40;95837.31;;;4.42;66.15
72308;BME280;60257;42.638;23.376;2022-12-18T11:46:17;95833.78;;;4.47;61.58
72308;BME280;60257;42.638;23.376;2022-12-18T11:48:56;95844.88;;;4.50;61.25
72308;BME280;60257;42.638;23.376;2022-12-18T11:51:29;95836.34;;;4.67;61.41
72308;BME280;60257;42.638;23.376;2022-12-18T11:53:57;95835.53;;;4.67;61.08
72308;BME280;60257;42.638;23.376;2022-12-18T11:56:32;95841.97;;;4.81;60.85
72308;BME280;60257;42.638;23.376;2022-12-18T12:02:03;95845.44;;;4.47;61.58
72308;BME280;60257;42.638;23.376;2022-12-18T12:21:27;95847.66;;;4.35;61.40
72308;BME280;60257;42.638;23.376;2022-12-18T12:24:07;95855.50;;;4.42;61.79
72308;BME280;60257;42.638;23.376;2022-12-18T12:26:55;95845.09;;;4.05;62.65
72308;BME280;60257;42.638;23.376;2022-12-18T12:34:32;95829.47;;;4.36;62.39
72308;BME280;60257;42.638;23.376;2022-12-18T12:39:50;95849.94;;;4.67;62.49
72308;BME280;60257;42.638;23.376;2022-12-18T12:42:31;95846.38;;;4.77;62.57
72308;BME280;60257;42.638;23.376;2022-12-18T12:45:30;95847.22;;;4.67;61.61
72308;BME280;60257;42.638;23.376;2022-12-18T12:48:02;95853.78;;;4.61;61.89
72308;BME280;60257;42.638;23.376;2022-12-18T12:50:33;95856.59;;;4.46;62.39
72308;BME280;60257;42.638;23.376;2022-12-18T12:53:01;95855.97;;;4.64;62.28
72308;BME280;60257;42.638;23.376;2022-12-18T12:55:32;95862.25;;;4.54;62.36
72308;BME280;60257;42.638;23.376;2022-12-18T13:00:39;95864.19;;;4.44;62.87
72308;BME280;60257;42.638;23.376;2022-12-18T13:03:08;95878.00;;;4.52;63.31
72308;BME280;60257;42.638;23.376;2022-12-18T13:05:54;95870.41;;;4.54;62.61
72308;BME280;60257;42.638;23.376;2022-12-18T13:08:30;95883.75;;;4.46;62.97
72308;BME280;60257;42.638;23.376;2022-12-18T13:10:57;95889.41;;;4.49;63.50
72308;BME280;60257;42.638;23.376;2022-12-18T13:13:55;95872.84;;;4.56;62.96
72308;BME280;60257;42.638;23.376;2022-12-18T13:16:23;95893.72;;;4.60;63.54
72308;BME280;60257;42.638;23.376;2022-12-18T13:21:21;95890.53;;;4.48;63.84
72308;BME280;60257;42.638;23.376;2022-12-18T13:23:49;95881.28;;;4.54;63.88
72308;BME280;60257;42.638;23.376;2022-12-18T13:34:24;95907.84;;;4.62;63.66
72308;BME280;60257;42.638;23.376;2022-12-18T13:36:51;95905.41;;;4.61;62.59
72308;BME280;60257;42.638;23.376;2022-12-18T13:44:57;95914.38;;;4.61;63.04
72308;BME280;60257;42.638;23.376;2022-12-18T13:47:34;95914.91;;;4.58;63.50
72308;BME280;60257;42.638;23.376;2022-12-18T13:50:04;95924.41;;;4.66;62.95
72308;BME280;60257;42.638;23.376;2022-12-18T13:52:39;95909.13;;;4.75;62.67
72308;BME280;60257;42.638;23.376;2022-12-18T13:55:10;95914.31;;;4.77;62.61
72308;BME280;60257;42.638;23.376;2022-12-18T13:57:39;95917.56;;;4.79;62.75
72308;BME280;60257;42.638;23.376;2022-12-18T14:00:27;95934.41;;;4.76;62.89
72308;BME280;60257;42.638;23.376;2022-12-18T14:02:54;95933.59;;;4.75;62.66
72308;BME280;60257;42.638;23.376;2022-12-18T14:07:55;95930.41;;;4.63;62.96
72308;BME280;60257;42.638;23.376;2022-12-18T14:10:25;95935.56;;;4.64;63.43
72308;BME280;60257;42.638;23.376;2022-12-18T14:12:51;95923.06;;;4.58;63.65
72308;BME280;60257;42.638;23.376;2022-12-18T14:20:22;95947.53;;;4.58;63.62
72308;BME280;60257;42.638;23.376;2022-12-18T14:22:49;95945.88;;;4.57;63.08
72308;BME280;60257;42.638;23.376;2022-12-18T14:25:21;95941.81;;;4.60;63.13
72308;BME280;60257;42.638;23.376;2022-12-18T14:28:12;95950.28;;;4.48;62.73
72308;BME280;60257;42.638;23.376;2022-12-18T14:30:43;95946.00;;;4.32;63.15
72308;BME280;60257;42.638;23.376;2022-12-18T14:33:22;95937.34;;;4.25;63.26
72308;BME280;60257;42.638;23.376;2022-12-18T14:36:02;95951.72;;;4.25;61.55
72308;BME280;60257;42.638;23.376;2022-12-18T14:38:39;95955.00;;;4.17;62.22
72308;BME280;60257;42.638;23.376;2022-12-18T14:41:11;95950.16;;;3.99;62.21
72308;BME280;60257;42.638;23.376;2022-12-18T14:43:39;95947.97;;;4.01;62.15
72308;BME280;60257;42.638;23.376;2022-12-18T14:46:25;95950.13;;;4.04;61.72
72308;BME280;60257;42.638;23.376;2022-12-18T14:48:52;95950.69;;;3.96;61.61
72308;BME280;60257;42.638;23.376;2022-12-18T14:51:20;95958.00;;;4.06;61.62
72308;BME280;60257;42.638;23.376;2022-12-18T14:53:55;95947.94;;;4.11;61.43
72308;BME280;60257;42.638;23.376;2022-12-18T14:56:33;95950.09;;;4.24;61.00
72308;BME280;60257;42.638;23.376;2022-12-18T14:59:02;95929.75;;;4.17;60.76